Capitol Logistics 987

Operating for DHL



EBLG
Liège Airport
Liege, BE
EGNX
East Midlands Airport
Derby, GB

Activity Log

Date Flight Route Aircraft Duration
04/12/2020 CPX1129 BUB7R BUB L608 DENUT L610 HEMEL T420 WELIN PIGO1J B738 1h 07m
01/18/2020 CPX1129 BUB7S BUB L608 DENUT L610 HEMEL T420 WELIN PIGO1J B738 1h 05m
10/22/2019 CPX729 Not Available B738 1h 05m
10/18/2019 CPX729 N0447F320 BUB7S BUB UL608 DENUT UL610 RAPIX L610 KOPUL/N0413F240 L610 HEMEL T420 WELIN PIGO1J B738 1h 08m
10/04/2019 CPX729 N0434F240 HELEN HELE1A B738 0h 46m

Route Details

Aircraft Information
Group: European Fleet
Types: A30F,A31F,B738
Route Data
Demand: M
Distance: 284nm
Duration: 1h 30m
Recm'd Route: BUB8S BUB L608 DENUT L610 HEMEL T420 WELIN
Origin Wx: EBLG 270650Z 27010KT 3000 -DZ BKN006 OVC007 12/12 Q1022 BECMG 6000 NSW BKN011
Dest. Wx: EGNX 270620Z 26012KT CAVOK 11/04 Q1023
Notes:

Financial History
Total Freight: 174,240lbs
Average Load: 34,848lbs/flt
Fuel Used: 26,358lbs
Avg. Fuel Used: 5,272lbs/flt
Fuel Expense: $29,257
Avg. Fuel Expense: $5,851
Avg. Fuel Cost: $1.11/lbs
Total Gross Income: $364,425
Pilot Pay: $1,015
Total Expenses: $39,618
Total Revenue: $294,654
Average Revenue: $72,885.08